sensor_id;sensor_type;location;lat;lon;timestamp;temperature;humidity
53146;DHT22;39042;53.150;5.898;2023-05-14T00:01:40;9.60;99.90
53146;DHT22;39042;53.150;5.898;2023-05-14T00:04:06;9.60;99.90
53146;DHT22;39042;53.150;5.898;2023-05-14T00:06:32;9.70;99.90
53146;DHT22;39042;53.150;5.898;2023-05-14T00:08:58;9.70;99.90
53146;DHT22;39042;53.150;5.898;2023-05-14T00:11:24;9.70;99.90
53146;DHT22;39042;53.150;5.898;2023-05-14T00:13:50;9.70;99.90
53146;DHT22;39042;53.150;5.898;2023-05-14T00:16:16;9.80;99.90
53146;DHT22;39042;53.150;5.898;2023-05-14T00:18:41;9.80;99.90
53146;DHT22;39042;53.150;5.898;2023-05-14T00:21:07;9.80;99.90
53146;DHT22;39042;53.150;5.898;2023-05-14T00:23:33;9.80;99.90
53146;DHT22;39042;53.150;5.898;2023-05-14T00:25:59;9.80;99.90
53146;DHT22;39042;53.150;5.898;2023-05-14T00:28:25;9.80;99.90
53146;DHT22;39042;53.150;5.898;2023-05-14T00:30:51;9.80;99.90
53146;DHT22;39042;53.150;5.898;2023-05-14T00:33:17;9.80;99.90
53146;DHT22;39042;53.150;5.898;2023-05-14T00:35:43;9.80;99.90
53146;DHT22;39042;53.150;5.898;2023-05-14T00:38:09;9.80;99.90
53146;DHT22;39042;53.150;5.898;2023-05-14T00:40:35;9.80;99.90
53146;DHT22;39042;53.150;5.898;2023-05-14T00:43:01;9.80;99.90
53146;DHT22;39042;53.150;5.898;2023-05-14T00:45:28;9.70;99.90
53146;DHT22;39042;53.150;5.898;2023-05-14T00:47:54;9.80;99.90
53146;DHT22;39042;53.150;5.898;2023-05-14T00:50:20;9.70;99.90
53146;DHT22;39042;53.150;5.898;2023-05-14T00:52:46;9.80;99.90
53146;DHT22;39042;53.150;5.898;2023-05-14T00:55:14;9.70;99.90
53146;DHT22;39042;53.150;5.898;2023-05-14T00:57:41;9.70;99.90
53146;DHT22;39042;53.150;5.898;2023-05-14T01:00:07;9.70;99.90
53146;DHT22;39042;53.150;5.898;2023-05-14T01:02:34;9.70;99.90
53146;DHT22;39042;53.150;5.898;2023-05-14T01:05:01;9.70;99.90
53146;DHT22;39042;53.150;5.898;2023-05-14T01:10:52;9.70;99.90
53146;DHT22;39042;53.150;5.898;2023-05-14T01:13:41;9.60;99.90
53146;DHT22;39042;53.150;5.898;2023-05-14T01:16:11;9.60;99.90
53146;DHT22;39042;53.150;5.898;2023-05-14T01:18:38;9.60;99.90
53146;DHT22;39042;53.150;5.898;2023-05-14T01:21:39;9.60;99.90
53146;DHT22;39042;53.150;5.898;2023-05-14T01:24:06;9.60;99.90
53146;DHT22;39042;53.150;5.898;2023-05-14T01:26:38;9.60;99.90
53146;DHT22;39042;53.150;5.898;2023-05-14T01:29:15;9.60;99.90
53146;DHT22;39042;53.150;5.898;2023-05-14T01:31:43;9.60;99.90
53146;DHT22;39042;53.150;5.898;2023-05-14T01:34:11;9.60;99.90
53146;DHT22;39042;53.150;5.898;2023-05-14T01:36:39;9.60;99.90
53146;DHT22;39042;53.150;5.898;2023-05-14T01:39:06;9.60;99.90
53146;DHT22;39042;53.150;5.898;2023-05-14T01:41:37;9.70;99.90
53146;DHT22;39042;53.150;5.898;2023-05-14T01:44:04;9.70;99.90
53146;DHT22;39042;53.150;5.898;2023-05-14T01:46:33;9.70;99.90
53146;DHT22;39042;53.150;5.898;2023-05-14T01:48:59;9.70;99.90
53146;DHT22;39042;53.150;5.898;2023-05-14T01:51:26;9.70;99.90
53146;DHT22;39042;53.150;5.898;2023-05-14T01:53:51;9.70;99.90
53146;DHT22;39042;53.150;5.898;2023-05-14T01:56:19;9.70;99.90
53146;DHT22;39042;53.150;5.898;2023-05-14T01:58:46;9.80;99.90
53146;DHT22;39042;53.150;5.898;2023-05-14T02:01:12;9.80;99.90
53146;DHT22;39042;53.150;5.898;2023-05-14T02:03:38;9.80;99.90
53146;DHT22;39042;53.150;5.898;2023-05-14T02:06:04;9.90;99.90
53146;DHT22;39042;53.150;5.898;2023-05-14T02:08:30;10.00;99.90
53146;DHT22;39042;53.150;5.898;2023-05-14T02:10:56;9.90;99.90
53146;DHT22;39042;53.150;5.898;2023-05-14T02:13:24;9.90;99.90
53146;DHT22;39042;53.150;5.898;2023-05-14T02:21:55;10.00;99.90
53146;DHT22;39042;53.150;5.898;2023-05-14T02:24:21;10.00;99.90
53146;DHT22;39042;53.150;5.898;2023-05-14T02:26:47;10.00;99.90
53146;DHT22;39042;53.150;5.898;2023-05-14T02:29:16;10.00;99.90
53146;DHT22;39042;53.150;5.898;2023-05-14T02:31:44;10.00;99.90
53146;DHT22;39042;53.150;5.898;2023-05-14T02:34:10;10.00;99.90
53146;DHT22;39042;53.150;5.898;2023-05-14T02:36:36;10.00;99.90
53146;DHT22;39042;53.150;5.898;2023-05-14T02:39:02;9.90;99.90
53146;DHT22;39042;53.150;5.898;2023-05-14T02:41:29;9.90;99.90
53146;DHT22;39042;53.150;5.898;2023-05-14T02:43:54;9.90;99.90
53146;DHT22;39042;53.150;5.898;2023-05-14T02:46:24;9.90;99.90
53146;DHT22;39042;53.150;5.898;2023-05-14T02:48:50;9.90;99.90
53146;DHT22;39042;53.150;5.898;2023-05-14T02:51:21;9.90;99.90
53146;DHT22;39042;53.150;5.898;2023-05-14T02:53:47;9.90;99.90
53146;DHT22;39042;53.150;5.898;2023-05-14T02:56:13;9.90;99.90
53146;DHT22;39042;53.150;5.898;2023-05-14T02:58:42;9.90;99.90
53146;DHT22;39042;53.150;5.898;2023-05-14T03:01:08;9.90;99.90
53146;DHT22;39042;53.150;5.898;2023-05-14T03:03:35;9.90;99.90
53146;DHT22;39042;53.150;5.898;2023-05-14T03:06:00;9.80;99.90
53146;DHT22;39042;53.150;5.898;2023-05-14T03:08:26;9.80;99.90
53146;DHT22;39042;53.150;5.898;2023-05-14T03:10:52;9.70;99.90
53146;DHT22;39042;53.150;5.898;2023-05-14T03:13:18;9.70;99.90
53146;DHT22;39042;53.150;5.898;2023-05-14T03:15:45;9.70;99.90
53146;DHT22;39042;53.150;5.898;2023-05-14T03:18:15;9.70;99.90
53146;DHT22;39042;53.150;5.898;2023-05-14T03:20:41;9.70;99.90
53146;DHT22;39042;53.150;5.898;2023-05-14T03:23:07;9.70;99.90
53146;DHT22;39042;53.150;5.898;2023-05-14T03:25:32;9.70;99.90
53146;DHT22;39042;53.150;5.898;2023-05-14T03:27:59;9.70;99.90
53146;DHT22;39042;53.150;5.898;2023-05-14T03:30:25;9.60;99.90
53146;DHT22;39042;53.150;5.898;2023-05-14T03:32:50;9.60;99.90
53146;DHT22;39042;53.150;5.898;2023-05-14T03:35:16;9.60;99.90
53146;DHT22;39042;53.150;5.898;2023-05-14T03:37:42;9.70;99.90
53146;DHT22;39042;53.150;5.898;2023-05-14T03:40:08;9.60;99.90
53146;DHT22;39042;53.150;5.898;2023-05-14T03:42:35;9.70;99.90
53146;DHT22;39042;53.150;5.898;2023-05-14T03:45:02;9.70;99.90
53146;DHT22;39042;53.150;5.898;2023-05-14T03:47:28;9.70;99.90
53146;DHT22;39042;53.150;5.898;2023-05-14T03:49:55;9.70;99.90
53146;DHT22;39042;53.150;5.898;2023-05-14T03:52:21;9.80;99.90
53146;DHT22;39042;53.150;5.898;2023-05-14T03:54:47;9.90;99.90
53146;DHT22;39042;53.150;5.898;2023-05-14T03:57:14;10.00;99.90
53146;DHT22;39042;53.150;5.898;2023-05-14T03:59:40;10.00;99.90
53146;DHT22;39042;53.150;5.898;2023-05-14T04:02:06;10.10;99.90
53146;DHT22;39042;53.150;5.898;2023-05-14T04:04:32;10.20;99.90
53146;DHT22;39042;53.150;5.898;2023-05-14T04:06:58;10.20;99.90
53146;DHT22;39042;53.150;5.898;2023-05-14T04:09:27;10.30;99.90
53146;DHT22;39042;53.150;5.898;2023-05-14T04:11:53;10.30;99.90
53146;DHT22;39042;53.150;5.898;2023-05-14T04:14:19;10.40;99.90
53146;DHT22;39042;53.150;5.898;2023-05-14T04:16:45;10.40;99.90
53146;DHT22;39042;53.150;5.898;2023-05-14T04:19:11;10.40;99.90
53146;DHT22;39042;53.150;5.898;2023-05-14T04:21:37;10.40;99.90
53146;DHT22;39042;53.150;5.898;2023-05-14T04:24:03;10.50;99.90
53146;DHT22;39042;53.150;5.898;2023-05-14T04:26:30;10.50;99.90
53146;DHT22;39042;53.150;5.898;2023-05-14T04:28:56;10.50;99.90
53146;DHT22;39042;53.150;5.898;2023-05-14T04:31:22;10.50;99.90
53146;DHT22;39042;53.150;5.898;2023-05-14T04:33:48;10.50;99.90
53146;DHT22;39042;53.150;5.898;2023-05-14T04:36:14;10.60;99.90
53146;DHT22;39042;53.150;5.898;2023-05-14T04:38:40;10.60;99.90
53146;DHT22;39042;53.150;5.898;2023-05-14T04:41:06;10.60;99.90
53146;DHT22;39042;53.150;5.898;2023-05-14T04:43:32;10.60;99.90
53146;DHT22;39042;53.150;5.898;2023-05-14T04:45:58;10.60;99.90
53146;DHT22;39042;53.150;5.898;2023-05-14T04:48:24;10.70;99.90
53146;DHT22;39042;53.150;5.898;2023-05-14T04:50:49;10.70;99.90
53146;DHT22;39042;53.150;5.898;2023-05-14T04:53:16;10.70;99.90
53146;DHT22;39042;53.150;5.898;2023-05-14T04:55:42;10.70;99.90
53146;DHT22;39042;53.150;5.898;2023-05-14T04:58:08;10.80;99.90
53146;DHT22;39042;53.150;5.898;2023-05-14T05:00:34;10.80;99.90
53146;DHT22;39042;53.150;5.898;2023-05-14T05:02:59;10.80;99.90
53146;DHT22;39042;53.150;5.898;2023-05-14T05:05:25;10.80;99.90
53146;DHT22;39042;53.150;5.898;2023-05-14T05:07:51;10.80;99.90
53146;DHT22;39042;53.150;5.898;2023-05-14T05:10:17;10.80;99.90
53146;DHT22;39042;53.150;5.898;2023-05-14T05:12:43;10.90;99.90
53146;DHT22;39042;53.150;5.898;2023-05-14T05:15:09;11.00;99.90
53146;DHT22;39042;53.150;5.898;2023-05-14T05:17:35;11.00;99.90
53146;DHT22;39042;53.150;5.898;2023-05-14T05:20:01;11.00;99.90
53146;DHT22;39042;53.150;5.898;2023-05-14T05:22:29;11.10;99.90
53146;DHT22;39042;53.150;5.898;2023-05-14T05:24:55;11.20;99.90
53146;DHT22;39042;53.150;5.898;2023-05-14T05:27:21;11.20;99.90
53146;DHT22;39042;53.150;5.898;2023-05-14T05:29:47;11.20;99.90
53146;DHT22;39042;53.150;5.898;2023-05-14T05:32:13;11.30;99.90
53146;DHT22;39042;53.150;5.898;2023-05-14T05:34:39;11.40;99.90
53146;DHT22;39042;53.150;5.898;2023-05-14T05:37:05;11.40;99.90
53146;DHT22;39042;53.150;5.898;2023-05-14T05:39:31;11.50;99.90
53146;DHT22;39042;53.150;5.898;2023-05-14T05:42:00;11.60;99.90
53146;DHT22;39042;53.150;5.898;2023-05-14T05:44:26;11.70;99.90
53146;DHT22;39042;53.150;5.898;2023-05-14T05:46:52;11.80;99.90
53146;DHT22;39042;53.150;5.898;2023-05-14T05:49:21;11.90;99.90
53146;DHT22;39042;53.150;5.898;2023-05-14T05:51:47;12.00;99.90
53146;DHT22;39042;53.150;5.898;2023-05-14T05:54:13;12.00;99.90
53146;DHT22;39042;53.150;5.898;2023-05-14T05:56:39;12.10;99.90
53146;DHT22;39042;53.150;5.898;2023-05-14T05:59:05;12.20;99.90
53146;DHT22;39042;53.150;5.898;2023-05-14T06:01:31;12.30;99.90
53146;DHT22;39042;53.150;5.898;2023-05-14T06:03:57;12.30;99.90
53146;DHT22;39042;53.150;5.898;2023-05-14T06:06:23;12.30;99.90
53146;DHT22;39042;53.150;5.898;2023-05-14T06:08:48;12.30;99.90
53146;DHT22;39042;53.150;5.898;2023-05-14T06:11:14;12.40;99.90
53146;DHT22;39042;53.150;5.898;2023-05-14T06:13:41;12.50;99.90
53146;DHT22;39042;53.150;5.898;2023-05-14T06:16:07;12.60;99.90
53146;DHT22;39042;53.150;5.898;2023-05-14T06:18:33;12.60;99.90
53146;DHT22;39042;53.150;5.898;2023-05-14T06:20:59;12.80;99.90
53146;DHT22;39042;53.150;5.898;2023-05-14T06:23:25;12.80;99.90
53146;DHT22;39042;53.150;5.898;2023-05-14T06:25:51;12.90;99.90
53146;DHT22;39042;53.150;5.898;2023-05-14T06:28:17;13.10;99.90
53146;DHT22;39042;53.150;5.898;2023-05-14T06:30:43;13.20;99.90
53146;DHT22;39042;53.150;5.898;2023-05-14T06:33:09;13.30;99.90
53146;DHT22;39042;53.150;5.898;2023-05-14T06:35:35;13.50;99.90
53146;DHT22;39042;53.150;5.898;2023-05-14T06:38:01;13.60;99.90
53146;DHT22;39042;53.150;5.898;2023-05-14T06:40:27;13.70;99.90
53146;DHT22;39042;53.150;5.898;2023-05-14T06:42:53;13.80;99.90
53146;DHT22;39042;53.150;5.898;2023-05-14T06:45:20;13.90;99.90
53146;DHT22;39042;53.150;5.898;2023-05-14T06:47:46;14.00;99.90
53146;DHT22;39042;53.150;5.898;2023-05-14T06:50:12;14.10;99.90
53146;DHT22;39042;53.150;5.898;2023-05-14T06:52:37;14.20;99.90
53146;DHT22;39042;53.150;5.898;2023-05-14T06:55:04;14.20;99.90
53146;DHT22;39042;53.150;5.898;2023-05-14T06:57:30;14.20;99.90
53146;DHT22;39042;53.150;5.898;2023-05-14T06:59:56;14.30;99.90
53146;DHT22;39042;53.150;5.898;2023-05-14T07:02:22;14.30;99.90
53146;DHT22;39042;53.150;5.898;2023-05-14T07:04:47;14.40;99.90
53146;DHT22;39042;53.150;5.898;2023-05-14T07:07:13;14.40;99.90
53146;DHT22;39042;53.150;5.898;2023-05-14T07:09:42;14.40;99.90
53146;DHT22;39042;53.150;5.898;2023-05-14T07:12:08;14.40;99.90
53146;DHT22;39042;53.150;5.898;2023-05-14T07:14:34;14.50;99.90
53146;DHT22;39042;53.150;5.898;2023-05-14T07:17:00;14.50;99.90
53146;DHT22;39042;53.150;5.898;2023-05-14T07:19:25;14.50;99.90
53146;DHT22;39042;53.150;5.898;2023-05-14T07:21:53;14.60;99.90
53146;DHT22;39042;53.150;5.898;2023-05-14T07:24:19;14.70;99.90
53146;DHT22;39042;53.150;5.898;2023-05-14T07:26:44;14.90;99.90
53146;DHT22;39042;53.150;5.898;2023-05-14T07:29:10;15.00;99.90
53146;DHT22;39042;53.150;5.898;2023-05-14T07:31:36;15.10;99.90
53146;DHT22;39042;53.150;5.898;2023-05-14T07:34:02;15.30;99.90
53146;DHT22;39042;53.150;5.898;2023-05-14T07:36:28;15.40;99.90
53146;DHT22;39042;53.150;5.898;2023-05-14T07:38:53;15.50;99.90
53146;DHT22;39042;53.150;5.898;2023-05-14T07:41:19;15.50;99.90
53146;DHT22;39042;53.150;5.898;2023-05-14T07:43:46;15.60;99.90
53146;DHT22;39042;53.150;5.898;2023-05-14T07:46:11;15.50;99.90
53146;DHT22;39042;53.150;5.898;2023-05-14T07:48:37;15.60;99.90
53146;DHT22;39042;53.150;5.898;2023-05-14T07:51:03;15.70;99.90
53146;DHT22;39042;53.150;5.898;2023-05-14T07:53:29;15.70;99.90
53146;DHT22;39042;53.150;5.898;2023-05-14T07:55:55;15.80;99.90
53146;DHT22;39042;53.150;5.898;2023-05-14T07:58:21;15.80;99.90
53146;DHT22;39042;53.150;5.898;2023-05-14T08:00:47;15.80;99.90
53146;DHT22;39042;53.150;5.898;2023-05-14T08:03:13;15.80;99.90
53146;DHT22;39042;53.150;5.898;2023-05-14T08:05:40;15.90;99.90
53146;DHT22;39042;53.150;5.898;2023-05-14T08:08:05;16.00;99.90
53146;DHT22;39042;53.150;5.898;2023-05-14T08:10:31;16.00;99.90
53146;DHT22;39042;53.150;5.898;2023-05-14T08:12:57;16.00;99.90
53146;DHT22;39042;53.150;5.898;2023-05-14T08:15:23;15.90;99.90
53146;DHT22;39042;53.150;5.898;2023-05-14T08:17:49;15.90;99.90
53146;DHT22;39042;53.150;5.898;2023-05-14T08:20:15;15.90;99.90
53146;DHT22;39042;53.150;5.898;2023-05-14T08:22:41;15.90;99.90
53146;DHT22;39042;53.150;5.898;2023-05-14T08:25:07;15.90;99.90
53146;DHT22;39042;53.150;5.898;2023-05-14T08:27:33;15.90;99.90
53146;DHT22;39042;53.150;5.898;2023-05-14T08:29:59;15.90;99.90
53146;DHT22;39042;53.150;5.898;2023-05-14T08:32:25;15.80;99.90
53146;DHT22;39042;53.150;5.898;2023-05-14T08:34:50;15.70;99.90
53146;DHT22;39042;53.150;5.898;2023-05-14T08:37:16;15.80;99.90
53146;DHT22;39042;53.150;5.898;2023-05-14T08:39:42;15.80;99.90
53146;DHT22;39042;53.150;5.898;2023-05-14T08:42:11;15.90;99.90
53146;DHT22;39042;53.150;5.898;2023-05-14T08:47:10;16.00;99.90
53146;DHT22;39042;53.150;5.898;2023-05-14T08:49:40;15.90;99.90
53146;DHT22;39042;53.150;5.898;2023-05-14T08:52:10;15.90;99.90
53146;DHT22;39042;53.150;5.898;2023-05-14T08:54:37;15.90;99.90
53146;DHT22;39042;53.150;5.898;2023-05-14T08:57:04;16.00;99.90
53146;DHT22;39042;53.150;5.898;2023-05-14T08:59:30;16.10;99.90
53146;DHT22;39042;53.150;5.898;2023-05-14T09:01:59;16.20;99.90
53146;DHT22;39042;53.150;5.898;2023-05-14T09:04:25;16.30;99.90
53146;DHT22;39042;53.150;5.898;2023-05-14T09:06:53;16.30;99.90
53146;DHT22;39042;53.150;5.898;2023-05-14T09:09:20;16.30;99.90
53146;DHT22;39042;53.150;5.898;2023-05-14T09:11:51;16.40;99.90
53146;DHT22;39042;53.150;5.898;2023-05-14T09:14:18;16.40;99.90
53146;DHT22;39042;53.150;5.898;2023-05-14T09:16:46;16.40;99.90
53146;DHT22;39042;53.150;5.898;2023-05-14T09:19:13;16.50;99.90
53146;DHT22;39042;53.150;5.898;2023-05-14T09:21:40;16.50;99.90
53146;DHT22;39042;53.150;5.898;2023-05-14T09:24:07;16.50;99.90
53146;DHT22;39042;53.150;5.898;2023-05-14T09:26:34;16.50;99.90
53146;DHT22;39042;53.150;5.898;2023-05-14T09:29:01;16.50;99.90
53146;DHT22;39042;53.150;5.898;2023-05-14T09:31:29;16.50;99.90
53146;DHT22;39042;53.150;5.898;2023-05-14T09:33:58;16.50;99.90
53146;DHT22;39042;53.150;5.898;2023-05-14T09:36:25;16.50;99.90
53146;DHT22;39042;53.150;5.898;2023-05-14T09:38:56;16.50;99.90
53146;DHT22;39042;53.150;5.898;2023-05-14T09:41:23;16.60;99.90
53146;DHT22;39042;53.150;5.898;2023-05-14T09:43:49;16.70;99.90
53146;DHT22;39042;53.150;5.898;2023-05-14T09:46:16;16.70;99.90
53146;DHT22;39042;53.150;5.898;2023-05-14T09:48:42;16.80;99.90
53146;DHT22;39042;53.150;5.898;2023-05-14T09:51:12;16.90;99.90
53146;DHT22;39042;53.150;5.898;2023-05-14T09:53:38;17.10;99.90
53146;DHT22;39042;53.150;5.898;2023-05-14T09:56:06;17.10;99.90
53146;DHT22;39042;53.150;5.898;2023-05-14T09:58:31;17.20;99.90
53146;DHT22;39042;53.150;5.898;2023-05-14T10:00:59;17.30;99.90
53146;DHT22;39042;53.150;5.898;2023-05-14T10:03:28;17.40;99.90
53146;DHT22;39042;53.150;5.898;2023-05-14T10:05:56;17.50;99.90
53146;DHT22;39042;53.150;5.898;2023-05-14T10:08:29;17.50;99.90
53146;DHT22;39042;53.150;5.898;2023-05-14T10:10:58;17.50;99.90
53146;DHT22;39042;53.150;5.898;2023-05-14T10:13:38;17.50;99.90
53146;DHT22;39042;53.150;5.898;2023-05-14T10:16:08;17.60;99.90
53146;DHT22;39042;53.150;5.898;2023-05-14T10:18:40;17.60;99.90
53146;DHT22;39042;53.150;5.898;2023-05-14T10:21:08;17.70;99.90
53146;DHT22;39042;53.150;5.898;2023-05-14T10:23:36;17.70;99.90
53146;DHT22;39042;53.150;5.898;2023-05-14T10:26:03;17.80;99.90
53146;DHT22;39042;53.150;5.898;2023-05-14T10:28:30;17.80;99.90
53146;DHT22;39042;53.150;5.898;2023-05-14T10:30:58;17.90;99.90
53146;DHT22;39042;53.150;5.898;2023-05-14T10:33:24;17.90;99.90
53146;DHT22;39042;53.150;5.898;2023-05-14T10:36:05;17.90;99.90
53146;DHT22;39042;53.150;5.898;2023-05-14T10:38:33;17.80;99.90
53146;DHT22;39042;53.150;5.898;2023-05-14T10:41:04;17.80;99.90
53146;DHT22;39042;53.150;5.898;2023-05-14T10:43:38;17.90;99.90
53146;DHT22;39042;53.150;5.898;2023-05-14T10:46:05;17.90;99.90
53146;DHT22;39042;53.150;5.898;2023-05-14T10:48:32;18.00;99.90
53146;DHT22;39042;53.150;5.898;2023-05-14T10:50:58;18.20;99.90
53146;DHT22;39042;53.150;5.898;2023-05-14T10:53:34;18.30;99.90
53146;DHT22;39042;53.150;5.898;2023-05-14T10:56:05;18.40;99.90
53146;DHT22;39042;53.150;5.898;2023-05-14T10:58:33;18.40;99.90
53146;DHT22;39042;53.150;5.898;2023-05-14T11:00:59;18.50;99.90
53146;DHT22;39042;53.150;5.898;2023-05-14T11:03:30;18.50;99.90
53146;DHT22;39042;53.150;5.898;2023-05-14T11:06:02;18.50;99.90
53146;DHT22;39042;53.150;5.898;2023-05-14T11:08:30;18.40;99.90
53146;DHT22;39042;53.150;5.898;2023-05-14T11:10:57;18.40;99.90
53146;DHT22;39042;53.150;5.898;2023-05-14T11:13:22;18.50;99.90
53146;DHT22;39042;53.150;5.898;2023-05-14T11:15:50;18.50;99.90
53146;DHT22;39042;53.150;5.898;2023-05-14T11:18:26;18.60;99.90
53146;DHT22;39042;53.150;5.898;2023-05-14T11:20:56;18.60;99.90
53146;DHT22;39042;53.150;5.898;2023-05-14T11:23:23;18.70;99.90
53146;DHT22;39042;53.150;5.898;2023-05-14T11:25:51;18.60;99.90
53146;DHT22;39042;53.150;5.898;2023-05-14T11:28:20;18.70;99.90
53146;DHT22;39042;53.150;5.898;2023-05-14T11:30:47;18.70;99.90
53146;DHT22;39042;53.150;5.898;2023-05-14T11:33:13;18.70;99.90
53146;DHT22;39042;53.150;5.898;2023-05-14T11:35:40;18.80;99.90
53146;DHT22;39042;53.150;5.898;2023-05-14T11:38:13;18.80;99.90
53146;DHT22;39042;53.150;5.898;2023-05-14T11:40:39;18.80;99.90
53146;DHT22;39042;53.150;5.898;2023-05-14T11:43:06;18.80;99.90
53146;DHT22;39042;53.150;5.898;2023-05-14T11:45:33;18.90;99.90
53146;DHT22;39042;53.150;5.898;2023-05-14T11:47:58;18.90;99.90
53146;DHT22;39042;53.150;5.898;2023-05-14T11:50:24;18.90;99.90
53146;DHT22;39042;53.150;5.898;2023-05-14T11:52:50;19.00;99.90
53146;DHT22;39042;53.150;5.898;2023-05-14T11:55:20;19.00;99.90
53146;DHT22;39042;53.150;5.898;2023-05-14T11:57:46;19.10;99.90
53146;DHT22;39042;53.150;5.898;2023-05-14T12:00:13;19.20;99.90
53146;DHT22;39042;53.150;5.898;2023-05-14T12:02:47;19.30;99.90
53146;DHT22;39042;53.150;5.898;2023-05-14T12:05:14;19.40;99.90
53146;DHT22;39042;53.150;5.898;2023-05-14T12:07:43;19.50;99.90
53146;DHT22;39042;53.150;5.898;2023-05-14T12:10:11;19.50;99.90
53146;DHT22;39042;53.150;5.898;2023-05-14T12:12:36;19.60;99.90
53146;DHT22;39042;53.150;5.898;2023-05-14T12:15:10;19.70;99.90
53146;DHT22;39042;53.150;5.898;2023-05-14T12:17:37;19.80;99.90
53146;DHT22;39042;53.150;5.898;2023-05-14T12:20:03;20.00;99.90
53146;DHT22;39042;53.150;5.898;2023-05-14T12:22:29;20.00;99.90
53146;DHT22;39042;53.150;5.898;2023-05-14T12:24:56;20.00;99.90
53146;DHT22;39042;53.150;5.898;2023-05-14T12:27:24;20.00;99.90
53146;DHT22;39042;53.150;5.898;2023-05-14T12:29:58;20.00;99.90
53146;DHT22;39042;53.150;5.898;2023-05-14T12:32:25;20.10;99.90
53146;DHT22;39042;53.150;5.898;2023-05-14T12:34:51;20.20;99.90
53146;DHT22;39042;53.150;5.898;2023-05-14T12:37:16;20.30;99.90
53146;DHT22;39042;53.150;5.898;2023-05-14T12:39:43;20.30;99.90
53146;DHT22;39042;53.150;5.898;2023-05-14T12:42:09;20.30;99.90
53146;DHT22;39042;53.150;5.898;2023-05-14T12:44:34;20.30;99.90
53146;DHT22;39042;53.150;5.898;2023-05-14T12:47:00;20.30;99.90
53146;DHT22;39042;53.150;5.898;2023-05-14T12:49:26;20.40;99.90
53146;DHT22;39042;53.150;5.898;2023-05-14T12:51:52;20.60;99.90
53146;DHT22;39042;53.150;5.898;2023-05-14T12:54:18;20.70;99.90
53146;DHT22;39042;53.150;5.898;2023-05-14T12:56:44;20.90;99.90
53146;DHT22;39042;53.150;5.898;2023-05-14T12:59:10;21.00;99.90
53146;DHT22;39042;53.150;5.898;2023-05-14T13:01:36;21.20;99.90
53146;DHT22;39042;53.150;5.898;2023-05-14T13:04:03;21.30;99.90
53146;DHT22;39042;53.150;5.898;2023-05-14T13:06:29;21.40;99.90
53146;DHT22;39042;53.150;5.898;2023-05-14T13:08:56;21.50;99.90
53146;DHT22;39042;53.150;5.898;2023-05-14T13:11:24;21.50;99.90
53146;DHT22;39042;53.150;5.898;2023-05-14T13:13:51;21.50;99.90
53146;DHT22;39042;53.150;5.898;2023-05-14T13:16:17;21.50;99.90
53146;DHT22;39042;53.150;5.898;2023-05-14T13:18:43;21.50;99.90
53146;DHT22;39042;53.150;5.898;2023-05-14T13:21:09;21.50;99.90
53146;DHT22;39042;53.150;5.898;2023-05-14T13:23:35;21.50;99.90
53146;DHT22;39042;53.150;5.898;2023-05-14T13:26:00;21.60;99.90
53146;DHT22;39042;53.150;5.898;2023-05-14T13:28:26;21.60;99.90
53146;DHT22;39042;53.150;5.898;2023-05-14T13:31:06;21.70;99.90
53146;DHT22;39042;53.150;5.898;2023-05-14T13:33:34;21.80;99.90
53146;DHT22;39042;53.150;5.898;2023-05-14T13:36:00;21.90;99.90
53146;DHT22;39042;53.150;5.898;2023-05-14T13:38:26;21.90;99.90
53146;DHT22;39042;53.150;5.898;2023-05-14T13:40:52;21.90;99.90
53146;DHT22;39042;53.150;5.898;2023-05-14T13:43:19;21.90;99.90
53146;DHT22;39042;53.150;5.898;2023-05-14T13:45:45;21.90;99.90
53146;DHT22;39042;53.150;5.898;2023-05-14T13:48:10;21.90;99.90
53146;DHT22;39042;53.150;5.898;2023-05-14T13:50:36;21.90;99.90
53146;DHT22;39042;53.150;5.898;2023-05-14T13:53:02;21.90;99.90
53146;DHT22;39042;53.150;5.898;2023-05-14T13:55:28;21.90;99.90
53146;DHT22;39042;53.150;5.898;2023-05-14T13:57:54;21.80;99.90
53146;DHT22;39042;53.150;5.898;2023-05-14T14:00:20;21.70;99.90
53146;DHT22;39042;53.150;5.898;2023-05-14T14:02:45;21.60;99.90
53146;DHT22;39042;53.150;5.898;2023-05-14T14:05:11;21.50;99.90
53146;DHT22;39042;53.150;5.898;2023-05-14T14:07:37;21.30;99.90
53146;DHT22;39042;53.150;5.898;2023-05-14T14:10:05;21.20;99.90
53146;DHT22;39042;53.150;5.898;2023-05-14T14:12:31;21.20;99.90
53146;DHT22;39042;53.150;5.898;2023-05-14T14:14:57;21.20;99.90
53146;DHT22;39042;53.150;5.898;2023-05-14T14:17:23;21.20;99.90
53146;DHT22;39042;53.150;5.898;2023-05-14T14:19:48;21.20;99.90
53146;DHT22;39042;53.150;5.898;2023-05-14T14:22:14;21.10;99.90
53146;DHT22;39042;53.150;5.898;2023-05-14T14:24:42;21.20;99.90
53146;DHT22;39042;53.150;5.898;2023-05-14T14:27:08;21.20;99.90
53146;DHT22;39042;53.150;5.898;2023-05-14T14:29:34;21.10;99.90
53146;DHT22;39042;53.150;5.898;2023-05-14T14:32:01;21.00;99.90
53146;DHT22;39042;53.150;5.898;2023-05-14T14:34:27;20.90;99.90
53146;DHT22;39042;53.150;5.898;2023-05-14T14:36:53;20.80;99.90
53146;DHT22;39042;53.150;5.898;2023-05-14T14:39:19;20.80;99.90
53146;DHT22;39042;53.150;5.898;2023-05-14T14:41:45;20.70;99.90
53146;DHT22;39042;53.150;5.898;2023-05-14T14:44:12;20.70;99.90
53146;DHT22;39042;53.150;5.898;2023-05-14T14:46:38;20.60;99.90
53146;DHT22;39042;53.150;5.898;2023-05-14T14:49:03;20.50;99.90
53146;DHT22;39042;53.150;5.898;2023-05-14T14:51:30;20.40;99.90
53146;DHT22;39042;53.150;5.898;2023-05-14T14:53:56;20.30;99.90
53146;DHT22;39042;53.150;5.898;2023-05-14T14:56:21;20.20;99.90
53146;DHT22;39042;53.150;5.898;2023-05-14T14:58:48;20.10;99.90
53146;DHT22;39042;53.150;5.898;2023-05-14T15:01:14;20.10;99.90
53146;DHT22;39042;53.150;5.898;2023-05-14T15:03:40;20.10;99.90
53146;DHT22;39042;53.150;5.898;2023-05-14T15:06:06;20.00;99.90
53146;DHT22;39042;53.150;5.898;2023-05-14T15:08:32;19.90;99.90
53146;DHT22;39042;53.150;5.898;2023-05-14T15:10:59;19.90;99.90
53146;DHT22;39042;53.150;5.898;2023-05-14T15:13:25;19.80;99.90
53146;DHT22;39042;53.150;5.898;2023-05-14T15:15:51;19.70;99.90
53146;DHT22;39042;53.150;5.898;2023-05-14T15:18:17;19.70;99.90
53146;DHT22;39042;53.150;5.898;2023-05-14T15:20:43;19.70;99.90
53146;DHT22;39042;53.150;5.898;2023-05-14T15:23:09;19.60;99.90
53146;DHT22;39042;53.150;5.898;2023-05-14T15:25:36;19.50;99.90
53146;DHT22;39042;53.150;5.898;2023-05-14T15:28:01;19.50;99.90
53146;DHT22;39042;53.150;5.898;2023-05-14T15:30:29;19.50;99.90
53146;DHT22;39042;53.150;5.898;2023-05-14T15:32:55;19.40;99.90
53146;DHT22;39042;53.150;5.898;2023-05-14T15:35:21;19.30;99.90
53146;DHT22;39042;53.150;5.898;2023-05-14T15:37:46;19.20;99.90
53146;DHT22;39042;53.150;5.898;2023-05-14T15:40:12;18.90;99.90
53146;DHT22;39042;53.150;5.898;2023-05-14T15:42:40;18.90;99.90
53146;DHT22;39042;53.150;5.898;2023-05-14T15:45:10;18.80;99.90